CheckWX is a tool to help pilots better visualize weather data.  It is not intended as a substitute for an official pre-flight weather briefing.

17:10:41 UTC

KGCN TAF
Grand Canyon National Park Airport
Grand Canyon, Arizona, USA
KGCN 081730Z 0818/0918 23020G30KT P6SM SKC FM090300 VRB06KT P6SM SKC

Jul-8@
18:00 UTC

Jul-8 @ 18:00 UTC

Jul-9@
03:00 UTC

Jul-9 @ 03:00 UTC

TAF KGCN 081730Z 0818/0918 23020G30KT P6SM SKC

Expired

Wind
  • 230° at 20 KTS
  • {Gusting to 30 KTS
Cloud Levels
  • Clear skies

Jul-9@
03:00 UTC

Jul-9 @ 03:00 UTC

Jul-9@
18:00 UTC

Jul-9 @ 18:00 UTC

FM090300 VRB06KT P6SM SKC

From

From Standard forecast or significant change

Wind
  • Variable at 6 KTS
Cloud Levels
  • Clear skies